sensor_id;sensor_type;location;lat;lon;timestamp;temperature;humidity
18717;DHT22;9487;50.892;6.906;2023-08-06T00:01:35;16.80;99.90
18717;DHT22;9487;50.892;6.906;2023-08-06T00:04:02;16.80;99.90
18717;DHT22;9487;50.892;6.906;2023-08-06T00:06:30;16.80;99.90
18717;DHT22;9487;50.892;6.906;2023-08-06T00:08:59;16.80;99.90
18717;DHT22;9487;50.892;6.906;2023-08-06T00:11:27;16.80;99.90
18717;DHT22;9487;50.892;6.906;2023-08-06T00:13:54;16.70;99.90
18717;DHT22;9487;50.892;6.906;2023-08-06T00:16:21;16.70;99.90
18717;DHT22;9487;50.892;6.906;2023-08-06T00:18:48;16.70;99.90
18717;DHT22;9487;50.892;6.906;2023-08-06T00:21:15;16.60;99.90
18717;DHT22;9487;50.892;6.906;2023-08-06T00:23:44;16.50;99.90
18717;DHT22;9487;50.892;6.906;2023-08-06T00:26:11;16.60;1.00
18717;DHT22;9487;50.892;6.906;2023-08-06T00:28:39;16.60;99.90
18717;DHT22;9487;50.892;6.906;2023-08-06T00:31:06;16.50;99.90
18717;DHT22;9487;50.892;6.906;2023-08-06T00:33:33;16.50;1.00
18717;DHT22;9487;50.892;6.906;2023-08-06T00:36:01;16.50;1.00
18717;DHT22;9487;50.892;6.906;2023-08-06T00:38:28;16.40;1.00
18717;DHT22;9487;50.892;6.906;2023-08-06T00:40:56;16.40;1.00
18717;DHT22;9487;50.892;6.906;2023-08-06T00:43:23;16.40;1.00
18717;DHT22;9487;50.892;6.906;2023-08-06T00:45:56;16.40;1.00
18717;DHT22;9487;50.892;6.906;2023-08-06T00:48:23;16.40;1.00
18717;DHT22;9487;50.892;6.906;2023-08-06T00:50:50;16.40;1.00
18717;DHT22;9487;50.892;6.906;2023-08-06T00:53:18;16.40;1.00
18717;DHT22;9487;50.892;6.906;2023-08-06T00:55:46;16.30;1.00
18717;DHT22;9487;50.892;6.906;2023-08-06T00:58:17;16.40;1.00
18717;DHT22;9487;50.892;6.906;2023-08-06T01:00:43;16.40;1.00
18717;DHT22;9487;50.892;6.906;2023-08-06T01:03:13;16.40;1.00
18717;DHT22;9487;50.892;6.906;2023-08-06T01:05:41;16.40;1.00
18717;DHT22;9487;50.892;6.906;2023-08-06T01:08:25;16.50;1.00
18717;DHT22;9487;50.892;6.906;2023-08-06T01:11:05;16.50;1.00
18717;DHT22;9487;50.892;6.906;2023-08-06T01:13:41;16.40;1.00
18717;DHT22;9487;50.892;6.906;2023-08-06T01:16:15;16.40;1.00
18717;DHT22;9487;50.892;6.906;2023-08-06T01:18:50;16.40;1.00
18717;DHT22;9487;50.892;6.906;2023-08-06T01:21:19;16.40;1.00
18717;DHT22;9487;50.892;6.906;2023-08-06T01:23:47;16.40;1.00
18717;DHT22;9487;50.892;6.906;2023-08-06T01:26:19;16.30;1.00
18717;DHT22;9487;50.892;6.906;2023-08-06T01:28:55;16.30;1.00
18717;DHT22;9487;50.892;6.906;2023-08-06T01:31:27;16.30;1.00
18717;DHT22;9487;50.892;6.906;2023-08-06T01:33:56;16.30;1.00
18717;DHT22;9487;50.892;6.906;2023-08-06T01:36:27;16.30;1.00
18717;DHT22;9487;50.892;6.906;2023-08-06T01:38:54;16.30;1.00
18717;DHT22;9487;50.892;6.906;2023-08-06T01:41:24;16.20;1.00
18717;DHT22;9487;50.892;6.906;2023-08-06T01:43:51;16.30;1.00
18717;DHT22;9487;50.892;6.906;2023-08-06T01:46:19;16.20;1.00
18717;DHT22;9487;50.892;6.906;2023-08-06T01:48:46;16.20;1.00
18717;DHT22;9487;50.892;6.906;2023-08-06T01:51:13;16.30;1.00
18717;DHT22;9487;50.892;6.906;2023-08-06T01:53:43;16.30;1.00
18717;DHT22;9487;50.892;6.906;2023-08-06T01:56:10;16.30;1.00
18717;DHT22;9487;50.892;6.906;2023-08-06T01:58:38;16.30;1.00
18717;DHT22;9487;50.892;6.906;2023-08-06T02:01:05;16.30;1.00
18717;DHT22;9487;50.892;6.906;2023-08-06T02:03:32;16.40;1.00
18717;DHT22;9487;50.892;6.906;2023-08-06T02:06:01;16.30;1.00
18717;DHT22;9487;50.892;6.906;2023-08-06T02:08:27;16.40;1.00
18717;DHT22;9487;50.892;6.906;2023-08-06T02:10:56;16.40;1.00
18717;DHT22;9487;50.892;6.906;2023-08-06T02:13:23;16.40;1.00
18717;DHT22;9487;50.892;6.906;2023-08-06T02:15:52;16.40;1.00
18717;DHT22;9487;50.892;6.906;2023-08-06T02:18:19;16.40;1.00
18717;DHT22;9487;50.892;6.906;2023-08-06T02:20:55;16.40;1.00
18717;DHT22;9487;50.892;6.906;2023-08-06T02:23:24;16.40;1.00
18717;DHT22;9487;50.892;6.906;2023-08-06T02:26:01;16.40;1.00
18717;DHT22;9487;50.892;6.906;2023-08-06T02:28:29;16.40;1.00
18717;DHT22;9487;50.892;6.906;2023-08-06T02:30:58;16.40;1.00
18717;DHT22;9487;50.892;6.906;2023-08-06T02:33:26;16.40;1.00
18717;DHT22;9487;50.892;6.906;2023-08-06T02:35:59;16.40;1.00
18717;DHT22;9487;50.892;6.906;2023-08-06T02:38:27;16.40;1.00
18717;DHT22;9487;50.892;6.906;2023-08-06T02:40:57;16.30;1.00
18717;DHT22;9487;50.892;6.906;2023-08-06T02:43:25;16.30;1.00
18717;DHT22;9487;50.892;6.906;2023-08-06T02:45:56;16.30;1.00
18717;DHT22;9487;50.892;6.906;2023-08-06T02:48:24;16.30;1.00
18717;DHT22;9487;50.892;6.906;2023-08-06T02:50:52;16.30;1.00
18717;DHT22;9487;50.892;6.906;2023-08-06T02:53:19;16.30;1.00
18717;DHT22;9487;50.892;6.906;2023-08-06T02:55:47;16.30;1.00
18717;DHT22;9487;50.892;6.906;2023-08-06T02:58:14;16.30;1.00
18717;DHT22;9487;50.892;6.906;2023-08-06T03:00:59;16.30;1.00
18717;DHT22;9487;50.892;6.906;2023-08-06T03:03:26;16.30;1.00
18717;DHT22;9487;50.892;6.906;2023-08-06T03:05:53;16.20;1.00
18717;DHT22;9487;50.892;6.906;2023-08-06T03:08:21;16.30;1.00
18717;DHT22;9487;50.892;6.906;2023-08-06T03:10:52;16.30;1.00
18717;DHT22;9487;50.892;6.906;2023-08-06T03:13:20;16.30;1.00
18717;DHT22;9487;50.892;6.906;2023-08-06T03:15:56;16.20;1.00
18717;DHT22;9487;50.892;6.906;2023-08-06T03:18:23;16.30;1.00
18717;DHT22;9487;50.892;6.906;2023-08-06T03:20:53;16.20;1.00
18717;DHT22;9487;50.892;6.906;2023-08-06T03:23:20;16.10;1.00
18717;DHT22;9487;50.892;6.906;2023-08-06T03:25:48;16.10;1.00
18717;DHT22;9487;50.892;6.906;2023-08-06T03:28:17;16.10;1.00
18717;DHT22;9487;50.892;6.906;2023-08-06T03:30:45;16.10;1.00
18717;DHT22;9487;50.892;6.906;2023-08-06T03:33:18;16.10;1.00
18717;DHT22;9487;50.892;6.906;2023-08-06T03:35:45;16.10;1.00
18717;DHT22;9487;50.892;6.906;2023-08-06T03:38:12;16.20;1.00
18717;DHT22;9487;50.892;6.906;2023-08-06T03:40:42;16.20;1.00
18717;DHT22;9487;50.892;6.906;2023-08-06T03:43:09;16.20;1.00
18717;DHT22;9487;50.892;6.906;2023-08-06T03:45:36;16.20;1.00
18717;DHT22;9487;50.892;6.906;2023-08-06T03:48:05;16.30;1.00
18717;DHT22;9487;50.892;6.906;2023-08-06T03:50:35;16.20;1.00
18717;DHT22;9487;50.892;6.906;2023-08-06T03:53:03;16.30;11.50
18717;DHT22;9487;50.892;6.906;2023-08-06T03:55:30;16.20;18.30
18717;DHT22;9487;50.892;6.906;2023-08-06T03:57:57;16.30;52.80
18717;DHT22;9487;50.892;6.906;2023-08-06T04:00:24;16.40;74.00
18717;DHT22;9487;50.892;6.906;2023-08-06T04:02:51;16.40;59.30
18717;DHT22;9487;50.892;6.906;2023-08-06T04:05:20;16.40;41.50
18717;DHT22;9487;50.892;6.906;2023-08-06T04:07:48;16.40;91.60
18717;DHT22;9487;50.892;6.906;2023-08-06T04:10:17;16.30;79.50
18717;DHT22;9487;50.892;6.906;2023-08-06T04:12:44;16.30;94.20
18717;DHT22;9487;50.892;6.906;2023-08-06T04:15:11;16.30;98.10
18717;DHT22;9487;50.892;6.906;2023-08-06T04:17:39;16.20;99.40
18717;DHT22;9487;50.892;6.906;2023-08-06T04:20:09;16.20;99.90
18717;DHT22;9487;50.892;6.906;2023-08-06T04:22:35;16.20;99.90
18717;DHT22;9487;50.892;6.906;2023-08-06T04:25:06;16.20;99.90
18717;DHT22;9487;50.892;6.906;2023-08-06T04:27:33;16.10;99.90
18717;DHT22;9487;50.892;6.906;2023-08-06T04:30:00;16.20;99.90
18717;DHT22;9487;50.892;6.906;2023-08-06T04:32:27;16.20;99.90
18717;DHT22;9487;50.892;6.906;2023-08-06T04:34:56;16.20;99.90
18717;DHT22;9487;50.892;6.906;2023-08-06T04:37:25;16.20;99.90
18717;DHT22;9487;50.892;6.906;2023-08-06T04:39:52;16.20;99.90
18717;DHT22;9487;50.892;6.906;2023-08-06T04:42:22;16.10;99.90
18717;DHT22;9487;50.892;6.906;2023-08-06T04:44:49;16.00;99.90
18717;DHT22;9487;50.892;6.906;2023-08-06T04:47:16;16.00;99.90
18717;DHT22;9487;50.892;6.906;2023-08-06T04:49:43;16.00;99.90
18717;DHT22;9487;50.892;6.906;2023-08-06T04:52:10;16.00;99.90
18717;DHT22;9487;50.892;6.906;2023-08-06T04:54:38;16.00;99.90
18717;DHT22;9487;50.892;6.906;2023-08-06T04:57:05;16.10;99.90
18717;DHT22;9487;50.892;6.906;2023-08-06T04:59:35;16.10;99.90
18717;DHT22;9487;50.892;6.906;2023-08-06T05:02:02;16.20;99.90
18717;DHT22;9487;50.892;6.906;2023-08-06T05:04:29;16.20;99.90
18717;DHT22;9487;50.892;6.906;2023-08-06T05:06:56;16.20;99.90
18717;DHT22;9487;50.892;6.906;2023-08-06T05:09:24;16.20;99.90
18717;DHT22;9487;50.892;6.906;2023-08-06T05:11:50;16.20;99.90
18717;DHT22;9487;50.892;6.906;2023-08-06T05:14:18;16.20;99.90
18717;DHT22;9487;50.892;6.906;2023-08-06T05:16:46;16.30;99.90
18717;DHT22;9487;50.892;6.906;2023-08-06T05:19:14;16.30;99.90
18717;DHT22;9487;50.892;6.906;2023-08-06T05:21:41;16.40;99.90
18717;DHT22;9487;50.892;6.906;2023-08-06T05:24:09;16.50;99.90
18717;DHT22;9487;50.892;6.906;2023-08-06T05:26:36;16.50;99.90
18717;DHT22;9487;50.892;6.906;2023-08-06T05:29:03;16.50;99.90
18717;DHT22;9487;50.892;6.906;2023-08-06T05:31:33;16.40;99.90
18717;DHT22;9487;50.892;6.906;2023-08-06T05:34:01;16.50;99.90
18717;DHT22;9487;50.892;6.906;2023-08-06T05:36:28;16.50;99.90
18717;DHT22;9487;50.892;6.906;2023-08-06T05:38:56;16.50;99.90
18717;DHT22;9487;50.892;6.906;2023-08-06T05:41:22;16.50;99.90
18717;DHT22;9487;50.892;6.906;2023-08-06T05:43:52;16.50;99.90
18717;DHT22;9487;50.892;6.906;2023-08-06T05:46:19;16.40;99.90
18717;DHT22;9487;50.892;6.906;2023-08-06T05:48:46;16.40;99.90
18717;DHT22;9487;50.892;6.906;2023-08-06T05:51:15;16.40;99.90
18717;DHT22;9487;50.892;6.906;2023-08-06T05:53:43;16.40;99.90
18717;DHT22;9487;50.892;6.906;2023-08-06T05:56:11;16.50;99.90
18717;DHT22;9487;50.892;6.906;2023-08-06T05:58:39;16.50;99.90
18717;DHT22;9487;50.892;6.906;2023-08-06T06:01:08;16.40;99.90
18717;DHT22;9487;50.892;6.906;2023-08-06T06:03:35;16.50;99.90
18717;DHT22;9487;50.892;6.906;2023-08-06T06:06:02;16.40;99.90
18717;DHT22;9487;50.892;6.906;2023-08-06T06:08:31;16.40;99.90
18717;DHT22;9487;50.892;6.906;2023-08-06T06:11:03;16.40;99.90
18717;DHT22;9487;50.892;6.906;2023-08-06T06:13:30;16.60;99.90
18717;DHT22;9487;50.892;6.906;2023-08-06T06:15:57;16.60;99.90
18717;DHT22;9487;50.892;6.906;2023-08-06T06:18:26;16.50;99.90
18717;DHT22;9487;50.892;6.906;2023-08-06T06:20:53;16.60;99.90
18717;DHT22;9487;50.892;6.906;2023-08-06T06:23:20;16.50;99.90
18717;DHT22;9487;50.892;6.906;2023-08-06T06:25:51;16.60;99.90
18717;DHT22;9487;50.892;6.906;2023-08-06T06:28:18;16.60;99.90
18717;DHT22;9487;50.892;6.906;2023-08-06T06:30:50;16.60;99.90
18717;DHT22;9487;50.892;6.906;2023-08-06T06:33:19;16.70;99.90
18717;DHT22;9487;50.892;6.906;2023-08-06T06:35:46;16.70;99.90
18717;DHT22;9487;50.892;6.906;2023-08-06T06:38:13;16.70;99.90
18717;DHT22;9487;50.892;6.906;2023-08-06T06:40:40;16.60;99.90
18717;DHT22;9487;50.892;6.906;2023-08-06T06:43:08;16.50;99.90
18717;DHT22;9487;50.892;6.906;2023-08-06T06:45:35;16.40;99.90
18717;DHT22;9487;50.892;6.906;2023-08-06T06:48:02;16.30;99.90
18717;DHT22;9487;50.892;6.906;2023-08-06T06:50:32;16.10;99.90
18717;DHT22;9487;50.892;6.906;2023-08-06T06:53:01;16.00;99.90
18717;DHT22;9487;50.892;6.906;2023-08-06T06:55:28;15.90;99.90
18717;DHT22;9487;50.892;6.906;2023-08-06T06:57:55;15.90;99.90
18717;DHT22;9487;50.892;6.906;2023-08-06T07:00:25;15.80;99.90
18717;DHT22;9487;50.892;6.906;2023-08-06T07:02:52;15.80;99.90
18717;DHT22;9487;50.892;6.906;2023-08-06T07:05:19;15.80;99.90
18717;DHT22;9487;50.892;6.906;2023-08-06T07:07:46;15.80;99.90
18717;DHT22;9487;50.892;6.906;2023-08-06T07:10:13;15.80;99.90
18717;DHT22;9487;50.892;6.906;2023-08-06T07:12:39;15.70;99.90
18717;DHT22;9487;50.892;6.906;2023-08-06T07:15:07;15.70;99.90
18717;DHT22;9487;50.892;6.906;2023-08-06T07:17:35;15.70;99.90
18717;DHT22;9487;50.892;6.906;2023-08-06T07:20:03;15.70;99.90
18717;DHT22;9487;50.892;6.906;2023-08-06T07:22:30;15.70;99.90
18717;DHT22;9487;50.892;6.906;2023-08-06T07:24:56;15.70;99.90
18717;DHT22;9487;50.892;6.906;2023-08-06T07:27:24;15.70;99.90
18717;DHT22;9487;50.892;6.906;2023-08-06T07:29:51;15.70;99.90
18717;DHT22;9487;50.892;6.906;2023-08-06T07:32:18;15.70;99.90
18717;DHT22;9487;50.892;6.906;2023-08-06T07:34:46;15.70;99.90
18717;DHT22;9487;50.892;6.906;2023-08-06T07:37:13;15.70;99.90
18717;DHT22;9487;50.892;6.906;2023-08-06T07:39:40;15.60;99.90
18717;DHT22;9487;50.892;6.906;2023-08-06T07:42:08;15.70;99.90
18717;DHT22;9487;50.892;6.906;2023-08-06T07:44:37;15.70;99.90
18717;DHT22;9487;50.892;6.906;2023-08-06T07:47:04;15.80;99.90
18717;DHT22;9487;50.892;6.906;2023-08-06T07:49:31;15.80;99.90
18717;DHT22;9487;50.892;6.906;2023-08-06T07:51:59;16.00;99.90
18717;DHT22;9487;50.892;6.906;2023-08-06T07:54:26;16.00;99.90
18717;DHT22;9487;50.892;6.906;2023-08-06T07:56:54;16.10;99.90
18717;DHT22;9487;50.892;6.906;2023-08-06T07:59:21;16.10;99.90
18717;DHT22;9487;50.892;6.906;2023-08-06T08:01:48;16.20;99.90
18717;DHT22;9487;50.892;6.906;2023-08-06T08:04:14;16.30;99.90
18717;DHT22;9487;50.892;6.906;2023-08-06T08:06:41;16.40;99.90
18717;DHT22;9487;50.892;6.906;2023-08-06T08:09:09;16.50;99.90
18717;DHT22;9487;50.892;6.906;2023-08-06T08:11:36;16.60;99.90
18717;DHT22;9487;50.892;6.906;2023-08-06T08:14:03;16.70;99.90
18717;DHT22;9487;50.892;6.906;2023-08-06T08:16:30;16.80;99.90
18717;DHT22;9487;50.892;6.906;2023-08-06T08:18:57;16.90;99.90
18717;DHT22;9487;50.892;6.906;2023-08-06T08:21:24;17.00;99.90
18717;DHT22;9487;50.892;6.906;2023-08-06T08:23:51;17.00;99.90
18717;DHT22;9487;50.892;6.906;2023-08-06T08:26:20;17.10;99.90
18717;DHT22;9487;50.892;6.906;2023-08-06T08:28:47;17.10;99.90
18717;DHT22;9487;50.892;6.906;2023-08-06T08:31:13;17.00;99.90
18717;DHT22;9487;50.892;6.906;2023-08-06T08:33:42;16.80;99.90
18717;DHT22;9487;50.892;6.906;2023-08-06T08:36:08;16.90;99.90
18717;DHT22;9487;50.892;6.906;2023-08-06T08:38:36;16.90;99.90
18717;DHT22;9487;50.892;6.906;2023-08-06T08:41:03;16.90;99.90
18717;DHT22;9487;50.892;6.906;2023-08-06T08:43:31;16.80;99.90
18717;DHT22;9487;50.892;6.906;2023-08-06T08:46:00;17.00;99.90
18717;DHT22;9487;50.892;6.906;2023-08-06T08:48:28;17.00;99.90
18717;DHT22;9487;50.892;6.906;2023-08-06T08:50:56;17.10;99.90
18717;DHT22;9487;50.892;6.906;2023-08-06T08:53:23;17.10;99.90
18717;DHT22;9487;50.892;6.906;2023-08-06T08:55:50;17.20;99.90
18717;DHT22;9487;50.892;6.906;2023-08-06T08:58:17;17.30;99.90
18717;DHT22;9487;50.892;6.906;2023-08-06T09:00:46;17.00;99.90
18717;DHT22;9487;50.892;6.906;2023-08-06T09:03:14;17.00;99.90
18717;DHT22;9487;50.892;6.906;2023-08-06T09:05:44;17.20;99.90
18717;DHT22;9487;50.892;6.906;2023-08-06T09:08:12;17.20;99.90
18717;DHT22;9487;50.892;6.906;2023-08-06T09:10:43;17.20;99.90
18717;DHT22;9487;50.892;6.906;2023-08-06T09:13:10;17.20;99.90
18717;DHT22;9487;50.892;6.906;2023-08-06T09:15:38;17.00;99.90
18717;DHT22;9487;50.892;6.906;2023-08-06T09:18:11;16.80;99.90
18717;DHT22;9487;50.892;6.906;2023-08-06T09:20:39;16.80;99.90
18717;DHT22;9487;50.892;6.906;2023-08-06T09:23:09;16.90;99.90
18717;DHT22;9487;50.892;6.906;2023-08-06T09:25:38;16.80;99.90
18717;DHT22;9487;50.892;6.906;2023-08-06T09:28:06;16.60;99.90
18717;DHT22;9487;50.892;6.906;2023-08-06T09:30:35;16.50;99.90
18717;DHT22;9487;50.892;6.906;2023-08-06T09:33:02;16.40;99.90
18717;DHT22;9487;50.892;6.906;2023-08-06T09:35:30;16.30;99.90
18717;DHT22;9487;50.892;6.906;2023-08-06T09:38:05;16.20;99.90
18717;DHT22;9487;50.892;6.906;2023-08-06T09:40:34;16.30;99.90
18717;DHT22;9487;50.892;6.906;2023-08-06T09:43:01;16.30;99.90
18717;DHT22;9487;50.892;6.906;2023-08-06T09:45:30;16.40;99.90
18717;DHT22;9487;50.892;6.906;2023-08-06T09:47:57;16.40;99.90
18717;DHT22;9487;50.892;6.906;2023-08-06T09:50:30;16.30;99.90
18717;DHT22;9487;50.892;6.906;2023-08-06T09:52:57;16.10;99.90
18717;DHT22;9487;50.892;6.906;2023-08-06T09:55:25;16.10;99.90
18717;DHT22;9487;50.892;6.906;2023-08-06T09:57:53;15.90;99.90
18717;DHT22;9487;50.892;6.906;2023-08-06T10:00:20;15.90;99.90
18717;DHT22;9487;50.892;6.906;2023-08-06T10:02:47;16.10;99.90
18717;DHT22;9487;50.892;6.906;2023-08-06T10:05:15;15.90;99.90
18717;DHT22;9487;50.892;6.906;2023-08-06T10:07:44;15.90;99.90
18717;DHT22;9487;50.892;6.906;2023-08-06T10:10:11;15.70;99.90
18717;DHT22;9487;50.892;6.906;2023-08-06T10:12:41;15.40;99.90
18717;DHT22;9487;50.892;6.906;2023-08-06T10:15:12;15.40;99.90
18717;DHT22;9487;50.892;6.906;2023-08-06T10:17:40;15.20;99.90
18717;DHT22;9487;50.892;6.906;2023-08-06T10:20:09;15.10;99.90
18717;DHT22;9487;50.892;6.906;2023-08-06T10:22:36;15.00;99.90
18717;DHT22;9487;50.892;6.906;2023-08-06T10:25:05;14.90;99.90
18717;DHT22;9487;50.892;6.906;2023-08-06T10:27:34;15.00;99.90
18717;DHT22;9487;50.892;6.906;2023-08-06T10:30:23;14.90;99.90
18717;DHT22;9487;50.892;6.906;2023-08-06T10:32:52;14.80;99.90
18717;DHT22;9487;50.892;6.906;2023-08-06T10:35:31;14.70;99.90
18717;DHT22;9487;50.892;6.906;2023-08-06T10:37:59;14.70;99.90
18717;DHT22;9487;50.892;6.906;2023-08-06T10:40:27;14.60;99.90
18717;DHT22;9487;50.892;6.906;2023-08-06T10:42:58;14.60;99.90
18717;DHT22;9487;50.892;6.906;2023-08-06T10:45:25;14.60;99.90
18717;DHT22;9487;50.892;6.906;2023-08-06T10:47:54;14.60;99.90
18717;DHT22;9487;50.892;6.906;2023-08-06T10:50:22;14.60;99.90
18717;DHT22;9487;50.892;6.906;2023-08-06T10:52:48;14.70;99.90
18717;DHT22;9487;50.892;6.906;2023-08-06T10:55:23;14.70;99.90
18717;DHT22;9487;50.892;6.906;2023-08-06T10:57:52;14.60;99.90
18717;DHT22;9487;50.892;6.906;2023-08-06T11:00:21;14.60;99.90
18717;DHT22;9487;50.892;6.906;2023-08-06T11:02:49;14.60;99.90
18717;DHT22;9487;50.892;6.906;2023-08-06T11:05:16;14.70;99.90
18717;DHT22;9487;50.892;6.906;2023-08-06T11:07:43;14.60;99.90
18717;DHT22;9487;50.892;6.906;2023-08-06T11:10:12;14.60;99.90
18717;DHT22;9487;50.892;6.906;2023-08-06T11:12:39;14.70;99.90
18717;DHT22;9487;50.892;6.906;2023-08-06T11:15:08;14.80;99.90
18717;DHT22;9487;50.892;6.906;2023-08-06T11:17:37;14.70;99.90
18717;DHT22;9487;50.892;6.906;2023-08-06T11:20:06;14.80;99.90
18717;DHT22;9487;50.892;6.906;2023-08-06T11:22:35;14.70;99.90
18717;DHT22;9487;50.892;6.906;2023-08-06T11:25:02;14.60;99.90
18717;DHT22;9487;50.892;6.906;2023-08-06T11:27:29;14.70;99.90
18717;DHT22;9487;50.892;6.906;2023-08-06T11:29:56;14.60;99.90
18717;DHT22;9487;50.892;6.906;2023-08-06T11:32:24;14.70;99.90
18717;DHT22;9487;50.892;6.906;2023-08-06T11:34:53;14.70;99.90
18717;DHT22;9487;50.892;6.906;2023-08-06T11:37:21;14.70;99.90
18717;DHT22;9487;50.892;6.906;2023-08-06T11:39:50;14.70;99.90
18717;DHT22;9487;50.892;6.906;2023-08-06T11:42:17;14.70;99.90
18717;DHT22;9487;50.892;6.906;2023-08-06T11:44:44;14.70;99.90
18717;DHT22;9487;50.892;6.906;2023-08-06T11:47:14;14.90;99.90
18717;DHT22;9487;50.892;6.906;2023-08-06T11:49:44;15.00;99.90
18717;DHT22;9487;50.892;6.906;2023-08-06T11:52:15;15.10;99.90
18717;DHT22;9487;50.892;6.906;2023-08-06T11:54:44;15.20;99.90
18717;DHT22;9487;50.892;6.906;2023-08-06T11:57:11;15.10;99.90
18717;DHT22;9487;50.892;6.906;2023-08-06T11:59:38;15.10;99.90
18717;DHT22;9487;50.892;6.906;2023-08-06T12:02:08;15.10;99.90
18717;DHT22;9487;50.892;6.906;2023-08-06T12:05:04;15.30;99.90
18717;DHT22;9487;50.892;6.906;2023-08-06T12:07:37;15.30;99.90
18717;DHT22;9487;50.892;6.906;2023-08-06T12:10:05;15.40;99.90
18717;DHT22;9487;50.892;6.906;2023-08-06T12:12:32;15.40;99.90
18717;DHT22;9487;50.892;6.906;2023-08-06T12:15:00;15.50;99.90
18717;DHT22;9487;50.892;6.906;2023-08-06T12:17:27;15.50;99.90
18717;DHT22;9487;50.892;6.906;2023-08-06T12:19:53;15.60;99.90
18717;DHT22;9487;50.892;6.906;2023-08-06T12:22:21;15.60;99.90
18717;DHT22;9487;50.892;6.906;2023-08-06T12:24:48;15.60;99.90
18717;DHT22;9487;50.892;6.906;2023-08-06T12:27:19;15.70;99.90
18717;DHT22;9487;50.892;6.906;2023-08-06T12:29:48;15.70;99.90
18717;DHT22;9487;50.892;6.906;2023-08-06T12:32:16;15.70;99.90
18717;DHT22;9487;50.892;6.906;2023-08-06T12:34:43;15.70;99.90
18717;DHT22;9487;50.892;6.906;2023-08-06T12:37:10;15.70;99.90
18717;DHT22;9487;50.892;6.906;2023-08-06T12:39:41;15.70;99.90
18717;DHT22;9487;50.892;6.906;2023-08-06T12:42:08;15.60;99.90
18717;DHT22;9487;50.892;6.906;2023-08-06T12:44:38;15.60;99.90
18717;DHT22;9487;50.892;6.906;2023-08-06T12:47:05;15.60;99.90
18717;DHT22;9487;50.892;6.906;2023-08-06T12:49:34;15.70;99.90
18717;DHT22;9487;50.892;6.906;2023-08-06T12:52:04;15.60;99.90
18717;DHT22;9487;50.892;6.906;2023-08-06T12:54:33;15.60;99.90
18717;DHT22;9487;50.892;6.906;2023-08-06T12:57:04;15.60;99.90
18717;DHT22;9487;50.892;6.906;2023-08-06T12:59:32;15.50;99.90
18717;DHT22;9487;50.892;6.906;2023-08-06T13:02:03;15.40;99.90
18717;DHT22;9487;50.892;6.906;2023-08-06T13:04:30;15.40;99.90
18717;DHT22;9487;50.892;6.906;2023-08-06T13:07:00;15.20;99.90
18717;DHT22;9487;50.892;6.906;2023-08-06T13:09:27;15.20;99.90
18717;DHT22;9487;50.892;6.906;2023-08-06T13:11:57;15.20;99.90
18717;DHT22;9487;50.892;6.906;2023-08-06T13:14:26;15.30;99.90
18717;DHT22;9487;50.892;6.906;2023-08-06T13:16:54;15.20;99.90
18717;DHT22;9487;50.892;6.906;2023-08-06T13:19:21;15.40;99.90
18717;DHT22;9487;50.892;6.906;2023-08-06T13:22:00;15.50;99.90
18717;DHT22;9487;50.892;6.906;2023-08-06T13:24:28;15.40;99.90
18717;DHT22;9487;50.892;6.906;2023-08-06T13:26:55;15.40;99.90
18717;DHT22;9487;50.892;6.906;2023-08-06T13:29:22;15.50;99.90
18717;DHT22;9487;50.892;6.906;2023-08-06T13:31:53;15.60;99.90
18717;DHT22;9487;50.892;6.906;2023-08-06T13:34:21;15.60;99.90
18717;DHT22;9487;50.892;6.906;2023-08-06T13:36:51;15.60;99.90
18717;DHT22;9487;50.892;6.906;2023-08-06T13:39:17;15.50;99.90
18717;DHT22;9487;50.892;6.906;2023-08-06T13:41:45;15.50;99.90
18717;DHT22;9487;50.892;6.906;2023-08-06T13:44:12;15.60;99.90
18717;DHT22;9487;50.892;6.906;2023-08-06T13:46:41;15.70;99.90
18717;DHT22;9487;50.892;6.906;2023-08-06T13:49:12;15.70;99.90
18717;DHT22;9487;50.892;6.906;2023-08-06T13:51:40;15.80;99.90
18717;DHT22;9487;50.892;6.906;2023-08-06T13:54:07;15.70;99.90
18717;DHT22;9487;50.892;6.906;2023-08-06T13:56:35;15.80;99.90
18717;DHT22;9487;50.892;6.906;2023-08-06T13:59:04;15.90;99.90
18717;DHT22;9487;50.892;6.906;2023-08-06T14:01:31;15.90;99.90
18717;DHT22;9487;50.892;6.906;2023-08-06T14:03:58;15.90;99.90
18717;DHT22;9487;50.892;6.906;2023-08-06T14:06:27;15.90;99.90
18717;DHT22;9487;50.892;6.906;2023-08-06T14:08:54;15.90;99.90
18717;DHT22;9487;50.892;6.906;2023-08-06T14:11:21;16.00;99.90
18717;DHT22;9487;50.892;6.906;2023-08-06T14:13:47;16.00;99.90
18717;DHT22;9487;50.892;6.906;2023-08-06T14:16:14;16.00;99.90
18717;DHT22;9487;50.892;6.906;2023-08-06T14:18:41;15.80;99.90
18717;DHT22;9487;50.892;6.906;2023-08-06T14:21:08;15.60;99.90
18717;DHT22;9487;50.892;6.906;2023-08-06T14:23:36;15.60;99.90
18717;DHT22;9487;50.892;6.906;2023-08-06T14:26:03;15.60;99.90
18717;DHT22;9487;50.892;6.906;2023-08-06T14:28:30;15.60;99.90
18717;DHT22;9487;50.892;6.906;2023-08-06T14:30:57;15.80;99.90
18717;DHT22;9487;50.892;6.906;2023-08-06T14:33:24;16.00;99.90
18717;DHT22;9487;50.892;6.906;2023-08-06T14:35:51;16.10;99.90
18717;DHT22;9487;50.892;6.906;2023-08-06T14:38:17;16.20;99.90
18717;DHT22;9487;50.892;6.906;2023-08-06T14:40:46;16.20;99.90
18717;DHT22;9487;50.892;6.906;2023-08-06T14:43:12;16.10;99.90
18717;DHT22;9487;50.892;6.906;2023-08-06T14:45:39;16.30;99.90
18717;DHT22;9487;50.892;6.906;2023-08-06T14:48:07;16.20;99.90
18717;DHT22;9487;50.892;6.906;2023-08-06T14:50:33;16.30;99.90
18717;DHT22;9487;50.892;6.906;2023-08-06T14:53:01;16.40;99.90
18717;DHT22;9487;50.892;6.906;2023-08-06T14:55:28;16.40;99.90
18717;DHT22;9487;50.892;6.906;2023-08-06T14:57:57;16.40;99.90
18717;DHT22;9487;50.892;6.906;2023-08-06T15:00:25;16.40;99.90
18717;DHT22;9487;50.892;6.906;2023-08-06T15:02:52;16.50;99.90
18717;DHT22;9487;50.892;6.906;2023-08-06T15:05:19;16.50;99.90
18717;DHT22;9487;50.892;6.906;2023-08-06T15:07:45;16.50;99.90
18717;DHT22;9487;50.892;6.906;2023-08-06T15:10:14;16.50;99.90
18717;DHT22;9487;50.892;6.906;2023-08-06T15:12:41;16.50;99.90
18717;DHT22;9487;50.892;6.906;2023-08-06T15:15:10;16.50;99.90
18717;DHT22;9487;50.892;6.906;2023-08-06T15:17:37;16.50;99.90
18717;DHT22;9487;50.892;6.906;2023-08-06T15:20:04;16.50;99.90
18717;DHT22;9487;50.892;6.906;2023-08-06T15:22:31;16.50;99.90
18717;DHT22;9487;50.892;6.906;2023-08-06T15:24:59;16.50;99.90
18717;DHT22;9487;50.892;6.906;2023-08-06T15:27:26;16.50;99.90
18717;DHT22;9487;50.892;6.906;2023-08-06T15:29:53;16.50;99.90
18717;DHT22;9487;50.892;6.906;2023-08-06T15:32:21;16.50;99.90
18717;DHT22;9487;50.892;6.906;2023-08-06T15:34:49;16.40;99.90
18717;DHT22;9487;50.892;6.906;2023-08-06T15:37:16;16.40;99.90
18717;DHT22;9487;50.892;6.906;2023-08-06T15:39:44;16.50;99.90
18717;DHT22;9487;50.892;6.906;2023-08-06T15:42:11;16.50;99.90
18717;DHT22;9487;50.892;6.906;2023-08-06T15:44:38;16.60;99.90
18717;DHT22;9487;50.892;6.906;2023-08-06T15:47:05;16.50;99.90
18717;DHT22;9487;50.892;6.906;2023-08-06T15:49:33;16.50;99.90
18717;DHT22;9487;50.892;6.906;2023-08-06T15:52:00;16.40;99.90
18717;DHT22;9487;50.892;6.906;2023-08-06T15:54:27;16.50;99.90
18717;DHT22;9487;50.892;6.906;2023-08-06T15:56:54;16.50;99.90